sensor_id;sensor_type;location;lat;lon;timestamp;P1;durP1;ratioP1;P2;durP2;ratioP2
27145;SDS011;17980;51.744;7.190;2023-04-08T00:01:48;13.03;;;11.60;;
27145;SDS011;17980;51.744;7.190;2023-04-08T00:04:15;12.40;;;11.10;;
27145;SDS011;17980;51.744;7.190;2023-04-08T00:06:42;18.93;;;12.27;;
27145;SDS011;17980;51.744;7.190;2023-04-08T00:09:10;13.20;;;11.83;;
27145;SDS011;17980;51.744;7.190;2023-04-08T00:11:47;13.73;;;12.43;;
27145;SDS011;17980;51.744;7.190;2023-04-08T00:14:14;16.03;;;14.33;;
27145;SDS011;17980;51.744;7.190;2023-04-08T00:16:41;20.60;;;13.87;;
27145;SDS011;17980;51.744;7.190;2023-04-08T00:19:09;18.67;;;14.20;;
27145;SDS011;17980;51.744;7.190;2023-04-08T00:21:47;49.90;;;13.80;;
27145;SDS011;17980;51.744;7.190;2023-04-08T00:24:14;33.63;;;14.23;;
27145;SDS011;17980;51.744;7.190;2023-04-08T00:26:42;16.00;;;14.30;;
27145;SDS011;17980;51.744;7.190;2023-04-08T00:29:09;21.03;;;15.10;;
27145;SDS011;17980;51.744;7.190;2023-04-08T00:31:47;12.53;;;11.17;;
27145;SDS011;17980;51.744;7.190;2023-04-08T00:34:15;12.57;;;11.00;;
27145;SDS011;17980;51.744;7.190;2023-04-08T00:36:42;11.80;;;10.60;;
27145;SDS011;17980;51.744;7.190;2023-04-08T00:39:10;10.57;;;9.63;;
27145;SDS011;17980;51.744;7.190;2023-04-08T00:41:47;10.50;;;9.13;;
27145;SDS011;17980;51.744;7.190;2023-04-08T00:44:14;9.83;;;8.90;;
27145;SDS011;17980;51.744;7.190;2023-04-08T00:46:42;8.90;;;8.10;;
27145;SDS011;17980;51.744;7.190;2023-04-08T00:49:09;76.53;;;10.53;;
27145;SDS011;17980;51.744;7.190;2023-04-08T00:51:46;165.47;;;14.20;;
27145;SDS011;17980;51.744;7.190;2023-04-08T00:54:13;147.43;;;13.37;;
27145;SDS011;17980;51.744;7.190;2023-04-08T00:59:18;222.20;;;14.83;;
27145;SDS011;17980;51.744;7.190;2023-04-08T01:01:49;331.10;;;16.93;;
27145;SDS011;17980;51.744;7.190;2023-04-08T01:04:28;284.73;;;16.93;;
27145;SDS011;17980;51.744;7.190;2023-04-08T01:06:59;208.70;;;14.67;;
27145;SDS011;17980;51.744;7.190;2023-04-08T01:09:37;227.20;;;14.77;;
27145;SDS011;17980;51.744;7.190;2023-04-08T01:12:07;93.57;;;10.63;;
27145;SDS011;17980;51.744;7.190;2023-04-08T01:14:38;97.23;;;11.13;;
27145;SDS011;17980;51.744;7.190;2023-04-08T01:17:08;34.57;;;10.30;;
27145;SDS011;17980;51.744;7.190;2023-04-08T01:19:45;80.37;;;10.27;;
27145;SDS011;17980;51.744;7.190;2023-04-08T01:22:18;89.27;;;11.53;;
27145;SDS011;17980;51.744;7.190;2023-04-08T01:24:56;33.00;;;12.30;;
27145;SDS011;17980;51.744;7.190;2023-04-08T01:27:27;17.40;;;11.97;;
27145;SDS011;17980;51.744;7.190;2023-04-08T01:30:05;10.30;;;9.27;;
27145;SDS011;17980;51.744;7.190;2023-04-08T01:32:34;10.20;;;9.30;;
27145;SDS011;17980;51.744;7.190;2023-04-08T01:35:04;11.20;;;10.23;;
27145;SDS011;17980;51.744;7.190;2023-04-08T01:37:33;27.50;;;24.30;;
27145;SDS011;17980;51.744;7.190;2023-04-08T01:40:12;21.60;;;19.40;;
27145;SDS011;17980;51.744;7.190;2023-04-08T01:42:40;16.70;;;15.10;;
27145;SDS011;17980;51.744;7.190;2023-04-08T01:45:10;24.37;;;21.83;;
27145;SDS011;17980;51.744;7.190;2023-04-08T01:47:37;17.10;;;15.50;;
27145;SDS011;17980;51.744;7.190;2023-04-08T01:50:18;13.00;;;11.70;;
27145;SDS011;17980;51.744;7.190;2023-04-08T01:52:47;10.70;;;9.80;;
27145;SDS011;17980;51.744;7.190;2023-04-08T01:55:18;11.00;;;10.10;;
27145;SDS011;17980;51.744;7.190;2023-04-08T01:57:46;9.90;;;9.10;;
27145;SDS011;17980;51.744;7.190;2023-04-08T02:00:24;8.23;;;7.53;;
27145;SDS011;17980;51.744;7.190;2023-04-08T02:02:54;8.13;;;7.43;;
27145;SDS011;17980;51.744;7.190;2023-04-08T02:05:22;9.07;;;8.27;;
27145;SDS011;17980;51.744;7.190;2023-04-08T02:07:50;8.93;;;8.13;;
27145;SDS011;17980;51.744;7.190;2023-04-08T02:10:27;8.57;;;7.87;;
27145;SDS011;17980;51.744;7.190;2023-04-08T02:12:54;9.30;;;8.40;;
27145;SDS011;17980;51.744;7.190;2023-04-08T02:15:22;9.50;;;8.70;;
27145;SDS011;17980;51.744;7.190;2023-04-08T02:17:52;16.83;;;15.13;;
27145;SDS011;17980;51.744;7.190;2023-04-08T02:20:31;10.87;;;9.77;;
27145;SDS011;17980;51.744;7.190;2023-04-08T02:23:02;11.17;;;10.13;;
27145;SDS011;17980;51.744;7.190;2023-04-08T02:25:32;10.47;;;9.47;;
27145;SDS011;17980;51.744;7.190;2023-04-08T02:28:02;10.97;;;9.70;;
27145;SDS011;17980;51.744;7.190;2023-04-08T02:30:50;11.73;;;8.97;;
27145;SDS011;17980;51.744;7.190;2023-04-08T02:33:19;10.17;;;9.17;;
27145;SDS011;17980;51.744;7.190;2023-04-08T02:35:47;10.87;;;8.73;;
27145;SDS011;17980;51.744;7.190;2023-04-08T02:38:16;11.63;;;8.80;;
27145;SDS011;17980;51.744;7.190;2023-04-08T02:40:53;10.20;;;9.20;;
27145;SDS011;17980;51.744;7.190;2023-04-08T02:43:21;10.53;;;7.30;;
27145;SDS011;17980;51.744;7.190;2023-04-08T02:45:51;8.33;;;7.53;;
27145;SDS011;17980;51.744;7.190;2023-04-08T02:48:28;9.10;;;6.73;;
27145;SDS011;17980;51.744;7.190;2023-04-08T02:50:55;8.53;;;7.10;;
27145;SDS011;17980;51.744;7.190;2023-04-08T02:53:32;7.47;;;6.87;;
27145;SDS011;17980;51.744;7.190;2023-04-08T02:56:00;8.37;;;7.60;;
27145;SDS011;17980;51.744;7.190;2023-04-08T02:58:27;8.67;;;7.97;;
27145;SDS011;17980;51.744;7.190;2023-04-08T03:01:04;9.13;;;8.13;;
27145;SDS011;17980;51.744;7.190;2023-04-08T03:03:31;8.43;;;7.73;;
27145;SDS011;17980;51.744;7.190;2023-04-08T03:05:58;8.43;;;7.73;;
27145;SDS011;17980;51.744;7.190;2023-04-08T03:08:26;8.57;;;7.87;;
27145;SDS011;17980;51.744;7.190;2023-04-08T03:11:02;8.17;;;7.33;;
27145;SDS011;17980;51.744;7.190;2023-04-08T03:13:30;8.73;;;7.60;;
27145;SDS011;17980;51.744;7.190;2023-04-08T03:15:58;8.50;;;7.80;;
27145;SDS011;17980;51.744;7.190;2023-04-08T03:18:35;9.17;;;8.37;;
27145;SDS011;17980;51.744;7.190;2023-04-08T03:21:02;9.10;;;8.30;;
27145;SDS011;17980;51.744;7.190;2023-04-08T03:23:39;8.87;;;7.97;;
27145;SDS011;17980;51.744;7.190;2023-04-08T03:26:06;10.03;;;9.10;;
27145;SDS011;17980;51.744;7.190;2023-04-08T03:28:33;10.50;;;9.60;;
27145;SDS011;17980;51.744;7.190;2023-04-08T03:31:11;9.77;;;8.87;;
27145;SDS011;17980;51.744;7.190;2023-04-08T03:33:38;9.57;;;8.67;;
27145;SDS011;17980;51.744;7.190;2023-04-08T03:36:06;10.80;;;9.80;;
27145;SDS011;17980;51.744;7.190;2023-04-08T03:38:34;9.63;;;8.73;;
27145;SDS011;17980;51.744;7.190;2023-04-08T03:41:11;10.07;;;9.17;;
27145;SDS011;17980;51.744;7.190;2023-04-08T03:43:38;10.80;;;9.73;;
27145;SDS011;17980;51.744;7.190;2023-04-08T03:46:05;11.47;;;10.37;;
27145;SDS011;17980;51.744;7.190;2023-04-08T03:48:33;10.43;;;9.40;;
27145;SDS011;17980;51.744;7.190;2023-04-08T03:51:09;12.27;;;10.57;;
27145;SDS011;17980;51.744;7.190;2023-04-08T03:53:37;12.67;;;11.37;;
27145;SDS011;17980;51.744;7.190;2023-04-08T03:56:04;20.07;;;18.00;;
27145;SDS011;17980;51.744;7.190;2023-04-08T03:58:33;13.40;;;12.03;;
27145;SDS011;17980;51.744;7.190;2023-04-08T04:01:09;13.20;;;11.90;;
27145;SDS011;17980;51.744;7.190;2023-04-08T04:03:37;14.00;;;12.60;;
27145;SDS011;17980;51.744;7.190;2023-04-08T04:06:05;11.87;;;10.67;;
27145;SDS011;17980;51.744;7.190;2023-04-08T04:08:32;12.70;;;11.50;;
27145;SDS011;17980;51.744;7.190;2023-04-08T04:11:09;13.10;;;11.70;;
27145;SDS011;17980;51.744;7.190;2023-04-08T04:13:36;13.03;;;11.73;;
27145;SDS011;17980;51.744;7.190;2023-04-08T04:16:04;13.00;;;11.70;;
27145;SDS011;17980;51.744;7.190;2023-04-08T04:18:32;12.87;;;11.67;;
27145;SDS011;17980;51.744;7.190;2023-04-08T04:21:09;13.07;;;11.67;;
27145;SDS011;17980;51.744;7.190;2023-04-08T04:23:36;11.80;;;10.60;;
27145;SDS011;17980;51.744;7.190;2023-04-08T04:26:07;13.03;;;11.43;;
27145;SDS011;17980;51.744;7.190;2023-04-08T04:28:34;13.23;;;11.83;;
27145;SDS011;17980;51.744;7.190;2023-04-08T04:31:17;12.00;;;10.80;;
27145;SDS011;17980;51.744;7.190;2023-04-08T04:33:45;13.73;;;12.30;;
27145;SDS011;17980;51.744;7.190;2023-04-08T04:36:12;12.40;;;11.03;;
27145;SDS011;17980;51.744;7.190;2023-04-08T04:38:40;12.37;;;10.30;;
27145;SDS011;17980;51.744;7.190;2023-04-08T04:41:16;11.03;;;9.93;;
27145;SDS011;17980;51.744;7.190;2023-04-08T04:43:44;11.23;;;10.17;;
27145;SDS011;17980;51.744;7.190;2023-04-08T04:46:11;11.77;;;10.63;;
27145;SDS011;17980;51.744;7.190;2023-04-08T04:48:48;11.57;;;10.43;;
27145;SDS011;17980;51.744;7.190;2023-04-08T04:51:16;12.07;;;10.73;;
27145;SDS011;17980;51.744;7.190;2023-04-08T04:53:52;14.07;;;11.07;;
27145;SDS011;17980;51.744;7.190;2023-04-08T04:56:20;12.57;;;11.27;;
27145;SDS011;17980;51.744;7.190;2023-04-08T04:58:47;12.37;;;11.17;;
27145;SDS011;17980;51.744;7.190;2023-04-08T05:01:30;17.33;;;13.33;;
27145;SDS011;17980;51.744;7.190;2023-04-08T05:03:57;18.27;;;12.60;;
27145;SDS011;17980;51.744;7.190;2023-04-08T05:06:24;12.77;;;11.47;;
27145;SDS011;17980;51.744;7.190;2023-04-08T05:08:51;11.60;;;10.27;;
27145;SDS011;17980;51.744;7.190;2023-04-08T05:11:28;11.77;;;10.57;;
27145;SDS011;17980;51.744;7.190;2023-04-08T05:13:55;11.63;;;10.53;;
27145;SDS011;17980;51.744;7.190;2023-04-08T05:16:23;13.33;;;12.03;;
27145;SDS011;17980;51.744;7.190;2023-04-08T05:19:00;15.70;;;12.53;;
27145;SDS011;17980;51.744;7.190;2023-04-08T05:21:27;15.43;;;13.83;;
27145;SDS011;17980;51.744;7.190;2023-04-08T05:24:04;17.07;;;12.70;;
27145;SDS011;17980;51.744;7.190;2023-04-08T05:26:31;14.93;;;12.03;;
27145;SDS011;17980;51.744;7.190;2023-04-08T05:28:59;13.23;;;11.83;;
27145;SDS011;17980;51.744;7.190;2023-04-08T05:31:35;13.43;;;11.73;;
27145;SDS011;17980;51.744;7.190;2023-04-08T05:34:03;13.93;;;11.43;;
27145;SDS011;17980;51.744;7.190;2023-04-08T05:36:30;13.57;;;12.17;;
27145;SDS011;17980;51.744;7.190;2023-04-08T05:39:07;16.33;;;12.27;;
27145;SDS011;17980;51.744;7.190;2023-04-08T05:41:34;15.33;;;12.57;;
27145;SDS011;17980;51.744;7.190;2023-04-08T05:44:11;12.17;;;10.97;;
27145;SDS011;17980;51.744;7.190;2023-04-08T05:46:38;15.10;;;11.57;;
27145;SDS011;17980;51.744;7.190;2023-04-08T05:49:06;12.07;;;10.93;;
27145;SDS011;17980;51.744;7.190;2023-04-08T05:51:42;12.10;;;10.90;;
27145;SDS011;17980;51.744;7.190;2023-04-08T05:54:10;12.17;;;10.97;;
27145;SDS011;17980;51.744;7.190;2023-04-08T05:56:47;12.83;;;11.07;;
27145;SDS011;17980;51.744;7.190;2023-04-08T05:59:14;12.17;;;10.97;;
27145;SDS011;17980;51.744;7.190;2023-04-08T06:04:27;10.93;;;9.60;;
27145;SDS011;17980;51.744;7.190;2023-04-08T06:06:54;11.17;;;9.97;;
27145;SDS011;17980;51.744;7.190;2023-04-08T06:09:24;12.67;;;9.10;;
27145;SDS011;17980;51.744;7.190;2023-04-08T06:12:01;10.43;;;9.27;;
27145;SDS011;17980;51.744;7.190;2023-04-08T06:14:29;13.77;;;10.17;;
27145;SDS011;17980;51.744;7.190;2023-04-08T06:16:56;9.70;;;8.70;;
27145;SDS011;17980;51.744;7.190;2023-04-08T06:19:23;10.80;;;9.37;;
27145;SDS011;17980;51.744;7.190;2023-04-08T06:22:00;12.10;;;9.43;;
27145;SDS011;17980;51.744;7.190;2023-04-08T06:24:27;10.13;;;9.03;;
27145;SDS011;17980;51.744;7.190;2023-04-08T06:26:55;11.73;;;9.00;;
27145;SDS011;17980;51.744;7.190;2023-04-08T06:31:58;10.13;;;7.87;;
27145;SDS011;17980;51.744;7.190;2023-04-08T06:34:25;10.67;;;8.00;;
27145;SDS011;17980;51.744;7.190;2023-04-08T06:36:52;7.53;;;6.70;;
27145;SDS011;17980;51.744;7.190;2023-04-08T06:39:20;8.17;;;6.90;;
27145;SDS011;17980;51.744;7.190;2023-04-08T06:41:56;7.40;;;6.70;;
27145;SDS011;17980;51.744;7.190;2023-04-08T06:44:24;7.73;;;6.90;;
27145;SDS011;17980;51.744;7.190;2023-04-08T06:46:51;8.83;;;7.10;;
27145;SDS011;17980;51.744;7.190;2023-04-08T06:49:18;9.27;;;6.80;;
27145;SDS011;17980;51.744;7.190;2023-04-08T06:51:55;6.73;;;6.13;;
27145;SDS011;17980;51.744;7.190;2023-04-08T06:54:22;5.93;;;5.33;;
27145;SDS011;17980;51.744;7.190;2023-04-08T06:56:50;6.43;;;5.83;;
27145;SDS011;17980;51.744;7.190;2023-04-08T06:59:17;10.47;;;5.60;;
27145;SDS011;17980;51.744;7.190;2023-04-08T07:01:54;7.80;;;6.50;;
27145;SDS011;17980;51.744;7.190;2023-04-08T07:04:22;8.53;;;7.57;;
27145;SDS011;17980;51.744;7.190;2023-04-08T07:06:49;13.10;;;8.50;;
27145;SDS011;17980;51.744;7.190;2023-04-08T07:09:16;9.17;;;6.23;;
27145;SDS011;17980;51.744;7.190;2023-04-08T07:11:53;6.57;;;5.60;;
27145;SDS011;17980;51.744;7.190;2023-04-08T07:14:22;6.33;;;5.73;;
27145;SDS011;17980;51.744;7.190;2023-04-08T07:16:49;8.97;;;6.63;;
27145;SDS011;17980;51.744;7.190;2023-04-08T07:19:17;6.97;;;6.27;;
27145;SDS011;17980;51.744;7.190;2023-04-08T07:21:54;8.87;;;5.73;;
27145;SDS011;17980;51.744;7.190;2023-04-08T07:24:22;6.47;;;5.80;;
27145;SDS011;17980;51.744;7.190;2023-04-08T07:26:50;6.07;;;5.30;;
27145;SDS011;17980;51.744;7.190;2023-04-08T07:31:53;7.13;;;6.40;;
27145;SDS011;17980;51.744;7.190;2023-04-08T07:34:20;6.43;;;5.53;;
27145;SDS011;17980;51.744;7.190;2023-04-08T07:36:48;5.53;;;5.03;;
27145;SDS011;17980;51.744;7.190;2023-04-08T07:39:15;4.63;;;4.23;;
27145;SDS011;17980;51.744;7.190;2023-04-08T07:41:52;4.57;;;4.17;;
27145;SDS011;17980;51.744;7.190;2023-04-08T07:46:55;6.50;;;4.07;;
27145;SDS011;17980;51.744;7.190;2023-04-08T07:49:22;4.73;;;4.30;;
27145;SDS011;17980;51.744;7.190;2023-04-08T07:51:59;5.57;;;4.10;;
27145;SDS011;17980;51.744;7.190;2023-04-08T07:54:26;5.07;;;3.80;;
27145;SDS011;17980;51.744;7.190;2023-04-08T07:56:53;4.27;;;3.87;;
27145;SDS011;17980;51.744;7.190;2023-04-08T07:59:21;4.97;;;4.53;;
27145;SDS011;17980;51.744;7.190;2023-04-08T08:01:58;4.03;;;3.67;;
27145;SDS011;17980;51.744;7.190;2023-04-08T08:04:26;5.37;;;4.77;;
27145;SDS011;17980;51.744;7.190;2023-04-08T08:06:53;5.80;;;4.80;;
27145;SDS011;17980;51.744;7.190;2023-04-08T08:09:20;4.83;;;4.40;;
27145;SDS011;17980;51.744;7.190;2023-04-08T08:11:58;5.40;;;4.90;;
27145;SDS011;17980;51.744;7.190;2023-04-08T08:14:26;5.47;;;4.70;;
27145;SDS011;17980;51.744;7.190;2023-04-08T08:16:53;5.90;;;4.80;;
27145;SDS011;17980;51.744;7.190;2023-04-08T08:19:21;4.97;;;4.47;;
27145;SDS011;17980;51.744;7.190;2023-04-08T08:21:58;5.63;;;5.10;;
27145;SDS011;17980;51.744;7.190;2023-04-08T08:24:25;7.43;;;5.47;;
27145;SDS011;17980;51.744;7.190;2023-04-08T08:26:53;7.43;;;5.10;;
27145;SDS011;17980;51.744;7.190;2023-04-08T08:29:20;7.40;;;5.00;;
27145;SDS011;17980;51.744;7.190;2023-04-08T08:31:57;5.63;;;5.10;;
27145;SDS011;17980;51.744;7.190;2023-04-08T08:34:24;8.40;;;4.67;;
27145;SDS011;17980;51.744;7.190;2023-04-08T08:36:51;5.17;;;4.67;;
27145;SDS011;17980;51.744;7.190;2023-04-08T08:39:19;5.63;;;5.13;;
27145;SDS011;17980;51.744;7.190;2023-04-08T08:41:55;5.40;;;4.67;;
27145;SDS011;17980;51.744;7.190;2023-04-08T08:44:23;5.63;;;5.13;;
27145;SDS011;17980;51.744;7.190;2023-04-08T08:46:51;6.63;;;4.90;;
27145;SDS011;17980;51.744;7.190;2023-04-08T08:49:19;6.53;;;5.83;;
27145;SDS011;17980;51.744;7.190;2023-04-08T08:51:55;5.73;;;5.17;;
27145;SDS011;17980;51.744;7.190;2023-04-08T08:54:24;9.10;;;6.03;;
27145;SDS011;17980;51.744;7.190;2023-04-08T08:56:52;16.13;;;10.00;;
27145;SDS011;17980;51.744;7.190;2023-04-08T08:59:19;8.03;;;5.30;;
27145;SDS011;17980;51.744;7.190;2023-04-08T09:01:57;5.50;;;5.00;;
27145;SDS011;17980;51.744;7.190;2023-04-08T09:04:24;7.50;;;5.83;;
27145;SDS011;17980;51.744;7.190;2023-04-08T09:07:07;6.90;;;5.33;;
27145;SDS011;17980;51.744;7.190;2023-04-08T09:09:48;5.50;;;4.90;;
27145;SDS011;17980;51.744;7.190;2023-04-08T09:12:24;7.50;;;5.60;;
27145;SDS011;17980;51.744;7.190;2023-04-08T09:15:02;6.20;;;5.60;;
27145;SDS011;17980;51.744;7.190;2023-04-08T09:17:31;7.40;;;6.70;;
27145;SDS011;17980;51.744;7.190;2023-04-08T09:20:09;7.13;;;6.53;;
27145;SDS011;17980;51.744;7.190;2023-04-08T09:25:44;9.10;;;7.03;;
27145;SDS011;17980;51.744;7.190;2023-04-08T09:28:18;7.70;;;5.50;;
27145;SDS011;17980;51.744;7.190;2023-04-08T09:30:55;7.40;;;5.57;;
27145;SDS011;17980;51.744;7.190;2023-04-08T09:33:29;5.90;;;5.40;;
27145;SDS011;17980;51.744;7.190;2023-04-08T09:36:07;7.20;;;6.37;;
27145;SDS011;17980;51.744;7.190;2023-04-08T09:38:35;6.60;;;6.00;;
27145;SDS011;17980;51.744;7.190;2023-04-08T09:41:13;6.30;;;5.70;;
27145;SDS011;17980;51.744;7.190;2023-04-08T09:43:41;6.50;;;5.33;;
27145;SDS011;17980;51.744;7.190;2023-04-08T09:46:13;10.07;;;5.40;;
27145;SDS011;17980;51.744;7.190;2023-04-08T09:48:47;7.77;;;6.17;;
27145;SDS011;17980;51.744;7.190;2023-04-08T09:51:30;5.80;;;5.00;;
27145;SDS011;17980;51.744;7.190;2023-04-08T09:54:01;8.47;;;5.00;;
27145;SDS011;17980;51.744;7.190;2023-04-08T09:56:33;7.77;;;5.33;;
27145;SDS011;17980;51.744;7.190;2023-04-08T09:59:08;7.20;;;4.93;;
27145;SDS011;17980;51.744;7.190;2023-04-08T10:01:51;5.93;;;5.33;;
27145;SDS011;17980;51.744;7.190;2023-04-08T10:04:19;5.67;;;5.20;;
27145;SDS011;17980;51.744;7.190;2023-04-08T10:06:49;5.37;;;4.47;;
27145;SDS011;17980;51.744;7.190;2023-04-08T10:09:20;5.93;;;4.93;;
27145;SDS011;17980;51.744;7.190;2023-04-08T10:11:57;5.90;;;5.20;;
27145;SDS011;17980;51.744;7.190;2023-04-08T10:14:25;5.57;;;4.97;;
27145;SDS011;17980;51.744;7.190;2023-04-08T10:17:02;5.10;;;4.60;;
27145;SDS011;17980;51.744;7.190;2023-04-08T10:19:49;5.10;;;4.60;;
27145;SDS011;17980;51.744;7.190;2023-04-08T10:25:29;5.57;;;5.07;;
27145;SDS011;17980;51.744;7.190;2023-04-08T10:27:57;5.37;;;4.87;;
27145;SDS011;17980;51.744;7.190;2023-04-08T10:30:38;5.67;;;5.23;;
27145;SDS011;17980;51.744;7.190;2023-04-08T10:33:09;8.63;;;5.10;;
27145;SDS011;17980;51.744;7.190;2023-04-08T10:35:39;5.13;;;4.60;;
27145;SDS011;17980;51.744;7.190;2023-04-08T10:38:17;5.17;;;4.67;;
27145;SDS011;17980;51.744;7.190;2023-04-08T10:40:48;9.10;;;5.87;;
27145;SDS011;17980;51.744;7.190;2023-04-08T10:43:42;5.40;;;4.90;;
27145;SDS011;17980;51.744;7.190;2023-04-08T10:46:12;5.53;;;5.03;;
27145;SDS011;17980;51.744;7.190;2023-04-08T10:48:39;7.60;;;5.40;;
27145;SDS011;17980;51.744;7.190;2023-04-08T10:53:42;5.07;;;4.60;;
27145;SDS011;17980;51.744;7.190;2023-04-08T10:56:10;7.07;;;4.87;;
27145;SDS011;17980;51.744;7.190;2023-04-08T10:58:47;6.00;;;4.77;;
27145;SDS011;17980;51.744;7.190;2023-04-08T11:01:24;7.10;;;5.40;;
27145;SDS011;17980;51.744;7.190;2023-04-08T11:03:54;5.77;;;5.17;;
27145;SDS011;17980;51.744;7.190;2023-04-08T11:06:35;7.97;;;5.37;;
27145;SDS011;17980;51.744;7.190;2023-04-08T11:09:04;4.67;;;4.27;;
27145;SDS011;17980;51.744;7.190;2023-04-08T11:11:49;4.83;;;4.43;;
27145;SDS011;17980;51.744;7.190;2023-04-08T11:14:18;5.27;;;4.77;;
27145;SDS011;17980;51.744;7.190;2023-04-08T11:16:46;5.73;;;4.77;;
27145;SDS011;17980;51.744;7.190;2023-04-08T11:19:14;4.83;;;4.43;;
27145;SDS011;17980;51.744;7.190;2023-04-08T11:21:51;4.90;;;4.10;;
27145;SDS011;17980;51.744;7.190;2023-04-08T11:24:19;4.90;;;4.30;;
27145;SDS011;17980;51.744;7.190;2023-04-08T11:27:01;5.80;;;4.40;;
27145;SDS011;17980;51.744;7.190;2023-04-08T11:29:30;5.27;;;4.83;;
27145;SDS011;17980;51.744;7.190;2023-04-08T11:32:13;6.23;;;4.97;;
27145;SDS011;17980;51.744;7.190;2023-04-08T11:34:41;5.43;;;4.93;;
27145;SDS011;17980;51.744;7.190;2023-04-08T11:37:08;5.53;;;5.03;;
27145;SDS011;17980;51.744;7.190;2023-04-08T11:39:55;10.10;;;4.87;;
27145;SDS011;17980;51.744;7.190;2023-04-08T11:42:26;6.20;;;5.10;;
27145;SDS011;17980;51.744;7.190;2023-04-08T11:44:54;5.13;;;4.67;;
27145;SDS011;17980;51.744;7.190;2023-04-08T11:47:21;5.17;;;4.67;;
27145;SDS011;17980;51.744;7.190;2023-04-08T11:50:07;5.63;;;5.13;;
27145;SDS011;17980;51.744;7.190;2023-04-08T11:52:44;6.43;;;5.80;;
27145;SDS011;17980;51.744;7.190;2023-04-08T11:55:21;5.93;;;5.30;;
27145;SDS011;17980;51.744;7.190;2023-04-08T11:57:49;5.70;;;5.20;;
27145;SDS011;17980;51.744;7.190;2023-04-08T12:00:26;6.13;;;5.63;;
27145;SDS011;17980;51.744;7.190;2023-04-08T12:02:54;6.17;;;5.57;;
27145;SDS011;17980;51.744;7.190;2023-04-08T12:05:37;6.33;;;5.80;;
27145;SDS011;17980;51.744;7.190;2023-04-08T12:08:04;6.67;;;6.07;;
27145;SDS011;17980;51.744;7.190;2023-04-08T12:10:41;6.23;;;5.63;;
27145;SDS011;17980;51.744;7.190;2023-04-08T12:13:10;8.63;;;7.43;;
27145;SDS011;17980;51.744;7.190;2023-04-08T12:15:37;7.83;;;6.90;;
27145;SDS011;17980;51.744;7.190;2023-04-08T12:18:06;7.40;;;6.70;;
27145;SDS011;17980;51.744;7.190;2023-04-08T12:20:42;10.37;;;7.47;;
27145;SDS011;17980;51.744;7.190;2023-04-08T12:23:10;8.63;;;7.83;;
27145;SDS011;17980;51.744;7.190;2023-04-08T12:25:38;8.37;;;7.43;;
27145;SDS011;17980;51.744;7.190;2023-04-08T12:28:05;7.73;;;7.03;;
27145;SDS011;17980;51.744;7.190;2023-04-08T12:30:42;7.83;;;7.10;;
27145;SDS011;17980;51.744;7.190;2023-04-08T12:33:09;7.20;;;6.53;;
27145;SDS011;17980;51.744;7.190;2023-04-08T12:35:36;8.17;;;7.33;;
27145;SDS011;17980;51.744;7.190;2023-04-08T12:38:13;7.17;;;6.47;;
27145;SDS011;17980;51.744;7.190;2023-04-08T12:40:41;8.60;;;7.80;;
27145;SDS011;17980;51.744;7.190;2023-04-08T12:43:18;9.27;;;8.30;;
27145;SDS011;17980;51.744;7.190;2023-04-08T12:45:45;9.30;;;8.23;;
27145;SDS011;17980;51.744;7.190;2023-04-08T12:48:13;8.47;;;7.47;;
27145;SDS011;17980;51.744;7.190;2023-04-08T12:50:50;12.50;;;8.13;;
27145;SDS011;17980;51.744;7.190;2023-04-08T12:55:53;8.47;;;7.60;;
27145;SDS011;17980;51.744;7.190;2023-04-08T12:58:22;8.57;;;7.67;;
27145;SDS011;17980;51.744;7.190;2023-04-08T13:00:59;8.20;;;7.40;;
27145;SDS011;17980;51.744;7.190;2023-04-08T13:03:28;11.77;;;7.97;;
27145;SDS011;17980;51.744;7.190;2023-04-08T13:06:04;9.57;;;8.67;;
27145;SDS011;17980;51.744;7.190;2023-04-08T13:08:32;9.30;;;8.40;;
27145;SDS011;17980;51.744;7.190;2023-04-08T13:11:09;9.67;;;8.53;;
27145;SDS011;17980;51.744;7.190;2023-04-08T13:13:36;8.77;;;7.97;;
27145;SDS011;17980;51.744;7.190;2023-04-08T13:16:04;10.13;;;8.63;;
27145;SDS011;17980;51.744;7.190;2023-04-08T13:18:41;9.33;;;8.33;;
27145;SDS011;17980;51.744;7.190;2023-04-08T13:21:09;9.93;;;8.87;;
27145;SDS011;17980;51.744;7.190;2023-04-08T13:23:45;9.13;;;8.33;;
27145;SDS011;17980;51.744;7.190;2023-04-08T13:26:13;8.30;;;7.50;;
27145;SDS011;17980;51.744;7.190;2023-04-08T13:28:40;8.83;;;8.00;;
27145;SDS011;17980;51.744;7.190;2023-04-08T13:31:17;8.50;;;7.70;;
27145;SDS011;17980;51.744;7.190;2023-04-08T13:33:44;8.37;;;7.57;;
27145;SDS011;17980;51.744;7.190;2023-04-08T13:36:12;8.70;;;7.90;;
27145;SDS011;17980;51.744;7.190;2023-04-08T13:38:39;9.13;;;8.33;;
27145;SDS011;17980;51.744;7.190;2023-04-08T13:41:16;8.47;;;7.67;;
27145;SDS011;17980;51.744;7.190;2023-04-08T13:43:43;9.03;;;8.13;;
27145;SDS011;17980;51.744;7.190;2023-04-08T13:46:10;8.83;;;8.03;;
27145;SDS011;17980;51.744;7.190;2023-04-08T13:48:47;9.23;;;8.33;;
27145;SDS011;17980;51.744;7.190;2023-04-08T13:51:15;9.27;;;8.37;;
27145;SDS011;17980;51.744;7.190;2023-04-08T13:53:51;9.73;;;8.70;;
27145;SDS011;17980;51.744;7.190;2023-04-08T13:56:19;9.77;;;8.77;;
27145;SDS011;17980;51.744;7.190;2023-04-08T13:58:46;10.40;;;9.27;;
27145;SDS011;17980;51.744;7.190;2023-04-08T14:01:23;10.43;;;9.47;;
27145;SDS011;17980;51.744;7.190;2023-04-08T14:03:50;10.23;;;9.03;;
27145;SDS011;17980;51.744;7.190;2023-04-08T14:06:18;9.87;;;8.57;;
27145;SDS011;17980;51.744;7.190;2023-04-08T14:08:45;9.43;;;8.57;;
27145;SDS011;17980;51.744;7.190;2023-04-08T14:11:22;10.60;;;9.60;;
27145;SDS011;17980;51.744;7.190;2023-04-08T14:13:50;10.00;;;9.03;;
27145;SDS011;17980;51.744;7.190;2023-04-08T14:16:27;10.73;;;9.63;;
27145;SDS011;17980;51.744;7.190;2023-04-08T14:18:56;10.53;;;9.43;;
27145;SDS011;17980;51.744;7.190;2023-04-08T14:21:24;10.70;;;9.70;;
27145;SDS011;17980;51.744;7.190;2023-04-08T14:23:51;10.47;;;9.47;;
27145;SDS011;17980;51.744;7.190;2023-04-08T14:26:28;11.10;;;9.80;;
27145;SDS011;17980;51.744;7.190;2023-04-08T14:28:57;10.30;;;9.33;;
27145;SDS011;17980;51.744;7.190;2023-04-08T14:31:24;12.73;;;9.43;;
27145;SDS011;17980;51.744;7.190;2023-04-08T14:33:52;10.87;;;9.80;;
27145;SDS011;17980;51.744;7.190;2023-04-08T14:36:31;10.80;;;9.67;;
27145;SDS011;17980;51.744;7.190;2023-04-08T14:38:58;13.00;;;9.47;;
27145;SDS011;17980;51.744;7.190;2023-04-08T14:46:38;9.77;;;8.77;;
27145;SDS011;17980;51.744;7.190;2023-04-08T14:49:05;9.47;;;8.53;;
27145;SDS011;17980;51.744;7.190;2023-04-08T14:51:32;9.50;;;8.60;;
27145;SDS011;17980;51.744;7.190;2023-04-08T14:54:01;8.83;;;8.00;;
27145;SDS011;17980;51.744;7.190;2023-04-08T14:56:38;9.43;;;8.53;;
27145;SDS011;17980;51.744;7.190;2023-04-08T14:59:05;9.87;;;8.97;;
27145;SDS011;17980;51.744;7.190;2023-04-08T15:01:32;9.50;;;8.60;;
27145;SDS011;17980;51.744;7.190;2023-04-08T15:04:00;11.60;;;10.40;;
27145;SDS011;17980;51.744;7.190;2023-04-08T15:06:39;10.93;;;9.20;;
27145;SDS011;17980;51.744;7.190;2023-04-08T15:09:06;10.30;;;9.30;;
27145;SDS011;17980;51.744;7.190;2023-04-08T15:11:33;10.43;;;9.07;;
27145;SDS011;17980;51.744;7.190;2023-04-08T15:14:00;10.53;;;9.13;;
27145;SDS011;17980;51.744;7.190;2023-04-08T15:16:37;12.20;;;10.80;;
27145;SDS011;17980;51.744;7.190;2023-04-08T15:19:05;16.27;;;11.37;;
27145;SDS011;17980;51.744;7.190;2023-04-08T15:21:32;12.60;;;10.80;;
27145;SDS011;17980;51.744;7.190;2023-04-08T15:23:59;15.00;;;11.93;;
27145;SDS011;17980;51.744;7.190;2023-04-08T15:26:36;28.60;;;25.63;;
27145;SDS011;17980;51.744;7.190;2023-04-08T15:29:03;12.50;;;11.17;;
27145;SDS011;17980;51.744;7.190;2023-04-08T15:31:31;11.27;;;10.13;;